Aflex, Kentucky
Current Conditions -  °F | °C
As of 12:55 AM on Friday 28 Nov 2014 (Local Time) from KPBX Reporting Station
Light Snow Light Snow  
Wind Chill: 28°   Ceiling: 1200
Heat Index: 28°   Visibility: 7mi
Dew Point: 25°   Wind: 0mph
Humidity: 90%   Direction: NA
Pressure: 30.33"   Gusts: NA
Location:  37.632°N, 82.2603°W
Report Text: KPBX 280555Z AUTO 00000KT 7SM -SN BKN012 BKN023 OVC039 M02/M04 A3033 RMK AO2 T10221037 11013 21022
Loading
Personal Weather Stations






























Interactive Weather Map New forecast layout! Learn more

10-Day Weather Forecast

Advertisements
Track Severe Weather on mobile